Lock Springs, Missouri
Current Conditions -  °F | °C
As of 6:15 PM on Sunday 25 Jan 2015 (Local Time) from KGPH Reporting Station
Overcast Overcast  
Wind Chill: 29°   Ceiling: 2100
Heat Index: 37°   Visibility: 10mi
Dew Point: 32°   Wind: 13mph
Humidity: 81%   Direction: 340°NNW
Pressure: 30.06"   Gusts: 20mph
Location:  39.85°N, 93.78°W
Report Text: KGPH 260015Z AUTO 34011G17KT 10SM OVC021 03/00 A3006 RMK AO2
Loading
Personal Weather Stations






























Interactive Weather Map New forecast layout! Learn more

10-Day Weather Forecast

Advertisements
Track Severe Weather on mobile